sensor_id;sensor_type;location;lat;lon;timestamp;temperature;humidity
34815;DHT22;21030;53.912;15.214;2022-11-11T00:01:25;30.60;29.90
34815;DHT22;21030;53.912;15.214;2022-11-11T00:03:55;31.40;30.00
34815;DHT22;21030;53.912;15.214;2022-11-11T00:06:23;31.60;29.40
34815;DHT22;21030;53.912;15.214;2022-11-11T00:08:51;31.60;29.50
34815;DHT22;21030;53.912;15.214;2022-11-11T00:11:18;32.70;28.90
34815;DHT22;21030;53.912;15.214;2022-11-11T00:13:45;32.80;28.40
34815;DHT22;21030;53.912;15.214;2022-11-11T00:16:17;32.40;28.60
34815;DHT22;21030;53.912;15.214;2022-11-11T00:18:45;33.00;28.40
34815;DHT22;21030;53.912;15.214;2022-11-11T00:21:31;32.80;28.30
34815;DHT22;21030;53.912;15.214;2022-11-11T00:24:27;33.10;28.00
34815;DHT22;21030;53.912;15.214;2022-11-11T00:27:13;33.30;27.90
34815;DHT22;21030;53.912;15.214;2022-11-11T00:29:45;32.80;27.90
34815;DHT22;21030;53.912;15.214;2022-11-11T00:32:12;32.50;28.40
34815;DHT22;21030;53.912;15.214;2022-11-11T00:34:50;32.50;28.30
34815;DHT22;21030;53.912;15.214;2022-11-11T00:37:36;31.50;28.70
34815;DHT22;21030;53.912;15.214;2022-11-11T00:40:03;30.70;29.70
34815;DHT22;21030;53.912;15.214;2022-11-11T00:42:31;30.40;30.20
34815;DHT22;21030;53.912;15.214;2022-11-11T00:44:58;29.90;30.10
34815;DHT22;21030;53.912;15.214;2022-11-11T00:47:25;29.70;31.00
34815;DHT22;21030;53.912;15.214;2022-11-11T00:50:19;30.00;31.00
34815;DHT22;21030;53.912;15.214;2022-11-11T00:53:16;29.70;31.00
34815;DHT22;21030;53.912;15.214;2022-11-11T00:55:51;29.40;31.50
34815;DHT22;21030;53.912;15.214;2022-11-11T00:58:18;29.20;31.70
34815;DHT22;21030;53.912;15.214;2022-11-11T01:00:45;30.10;31.40
34815;DHT22;21030;53.912;15.214;2022-11-11T01:03:13;30.20;30.90
34815;DHT22;21030;53.912;15.214;2022-11-11T01:05:40;30.20;30.30
34815;DHT22;21030;53.912;15.214;2022-11-11T01:08:07;30.70;30.20
34815;DHT22;21030;53.912;15.214;2022-11-11T01:10:36;30.00;30.20
34815;DHT22;21030;53.912;15.214;2022-11-11T01:13:21;29.70;31.10
34815;DHT22;21030;53.912;15.214;2022-11-11T01:15:50;30.30;30.60
34815;DHT22;21030;53.912;15.214;2022-11-11T01:18:22;31.10;30.00
34815;DHT22;21030;53.912;15.214;2022-11-11T01:21:08;31.20;29.70
34815;DHT22;21030;53.912;15.214;2022-11-11T01:23:38;30.60;30.00
34815;DHT22;21030;53.912;15.214;2022-11-11T01:28:44;30.00;30.80
34815;DHT22;21030;53.912;15.214;2022-11-11T01:31:14;30.70;30.40
34815;DHT22;21030;53.912;15.214;2022-11-11T01:33:42;31.00;29.80
34815;DHT22;21030;53.912;15.214;2022-11-11T01:36:15;31.30;29.60
34815;DHT22;21030;53.912;15.214;2022-11-11T01:38:46;32.20;29.10
34815;DHT22;21030;53.912;15.214;2022-11-11T01:41:16;32.40;28.40
34815;DHT22;21030;53.912;15.214;2022-11-11T01:57:13;31.90;29.10
34815;DHT22;21030;53.912;15.214;2022-11-11T01:59:43;32.80;28.50
34815;DHT22;21030;53.912;15.214;2022-11-11T02:02:51;33.00;28.10
34815;DHT22;21030;53.912;15.214;2022-11-11T02:05:21;33.80;27.90
34815;DHT22;21030;53.912;15.214;2022-11-11T02:08:17;32.90;27.80
34815;DHT22;21030;53.912;15.214;2022-11-11T02:11:06;33.30;28.00
34815;DHT22;21030;53.912;15.214;2022-11-11T02:13:37;33.30;27.60
34815;DHT22;21030;53.912;15.214;2022-11-11T02:16:25;33.20;27.50
34815;DHT22;21030;53.912;15.214;2022-11-11T02:18:52;32.80;28.20
34815;DHT22;21030;53.912;15.214;2022-11-11T02:21:52;32.80;28.00
34815;DHT22;21030;53.912;15.214;2022-11-11T02:24:22;32.50;28.40
34815;DHT22;21030;53.912;15.214;2022-11-11T02:26:51;33.00;28.20
34815;DHT22;21030;53.912;15.214;2022-11-11T02:29:25;33.20;27.90
34815;DHT22;21030;53.912;15.214;2022-11-11T02:31:52;32.60;28.10
34815;DHT22;21030;53.912;15.214;2022-11-11T02:34:19;32.20;28.10
34815;DHT22;21030;53.912;15.214;2022-11-11T02:36:46;32.70;28.10
34815;DHT22;21030;53.912;15.214;2022-11-11T02:39:14;31.70;28.60
34815;DHT22;21030;53.912;15.214;2022-11-11T02:41:46;31.60;29.00
34815;DHT22;21030;53.912;15.214;2022-11-11T02:44:25;32.20;28.90
34815;DHT22;21030;53.912;15.214;2022-11-11T02:46:53;32.20;28.40
34815;DHT22;21030;53.912;15.214;2022-11-11T02:49:20;32.30;28.50
34815;DHT22;21030;53.912;15.214;2022-11-11T02:51:47;31.40;28.70
34815;DHT22;21030;53.912;15.214;2022-11-11T02:54:15;31.40;29.50
34815;DHT22;21030;53.912;15.214;2022-11-11T02:56:42;31.50;29.40
34815;DHT22;21030;53.912;15.214;2022-11-11T02:59:28;31.20;29.20
34815;DHT22;21030;53.912;15.214;2022-11-11T03:01:55;31.20;29.30
34815;DHT22;21030;53.912;15.214;2022-11-11T03:04:22;30.60;29.60
34815;DHT22;21030;53.912;15.214;2022-11-11T03:06:50;30.60;30.00
34815;DHT22;21030;53.912;15.214;2022-11-11T03:09:17;30.80;29.70
34815;DHT22;21030;53.912;15.214;2022-11-11T03:11:44;30.70;29.60
34815;DHT22;21030;53.912;15.214;2022-11-11T03:14:11;31.50;29.50
34815;DHT22;21030;53.912;15.214;2022-11-11T03:16:38;31.10;29.30
34815;DHT22;21030;53.912;15.214;2022-11-11T03:19:24;31.10;29.60
34815;DHT22;21030;53.912;15.214;2022-11-11T03:21:51;31.40;29.30
34815;DHT22;21030;53.912;15.214;2022-11-11T03:24:38;31.20;29.00
34815;DHT22;21030;53.912;15.214;2022-11-11T03:27:24;31.90;28.90
34815;DHT22;21030;53.912;15.214;2022-11-11T03:29:50;31.90;28.70
34815;DHT22;21030;53.912;15.214;2022-11-11T03:32:18;32.00;28.70
34815;DHT22;21030;53.912;15.214;2022-11-11T03:34:45;31.70;28.80
34815;DHT22;21030;53.912;15.214;2022-11-11T03:37:12;32.10;28.60
34815;DHT22;21030;53.912;15.214;2022-11-11T03:39:58;31.80;28.60
34815;DHT22;21030;53.912;15.214;2022-11-11T03:42:25;31.60;28.80
34815;DHT22;21030;53.912;15.214;2022-11-11T03:44:52;30.80;29.20
34815;DHT22;21030;53.912;15.214;2022-11-11T03:47:19;31.10;29.60
34815;DHT22;21030;53.912;15.214;2022-11-11T03:49:46;32.00;29.00
34815;DHT22;21030;53.912;15.214;2022-11-11T03:52:13;31.90;28.50
34815;DHT22;21030;53.912;15.214;2022-11-11T03:54:40;32.40;28.40
34815;DHT22;21030;53.912;15.214;2022-11-11T03:57:07;33.20;27.90
34815;DHT22;21030;53.912;15.214;2022-11-11T03:59:53;32.70;27.80
34815;DHT22;21030;53.912;15.214;2022-11-11T04:02:20;32.10;28.10
34815;DHT22;21030;53.912;15.214;2022-11-11T04:05:06;32.50;28.30
34815;DHT22;21030;53.912;15.214;2022-11-11T04:07:52;32.40;28.30
34815;DHT22;21030;53.912;15.214;2022-11-11T04:10:37;32.10;28.30
34815;DHT22;21030;53.912;15.214;2022-11-11T04:13:05;31.90;28.40
34815;DHT22;21030;53.912;15.214;2022-11-11T04:15:51;31.80;28.60
34815;DHT22;21030;53.912;15.214;2022-11-11T04:18:37;31.90;28.70
34815;DHT22;21030;53.912;15.214;2022-11-11T04:21:23;32.50;28.40
34815;DHT22;21030;53.912;15.214;2022-11-11T04:24:11;31.40;28.60
34815;DHT22;21030;53.912;15.214;2022-11-11T04:26:58;31.50;29.20
34815;DHT22;21030;53.912;15.214;2022-11-11T04:29:26;31.70;28.80
34815;DHT22;21030;53.912;15.214;2022-11-11T04:32:19;31.50;28.80
34815;DHT22;21030;53.912;15.214;2022-11-11T04:35:05;31.10;29.20
34815;DHT22;21030;53.912;15.214;2022-11-11T04:37:35;30.70;29.60
34815;DHT22;21030;53.912;15.214;2022-11-11T04:40:03;30.30;29.80
34815;DHT22;21030;53.912;15.214;2022-11-11T04:42:52;30.10;30.00
34815;DHT22;21030;53.912;15.214;2022-11-11T04:45:19;29.80;30.40
34815;DHT22;21030;53.912;15.214;2022-11-11T04:48:04;30.20;30.20
34815;DHT22;21030;53.912;15.214;2022-11-11T04:50:40;30.30;29.90
34815;DHT22;21030;53.912;15.214;2022-11-11T04:53:09;29.30;30.50
34815;DHT22;21030;53.912;15.214;2022-11-11T04:55:40;29.60;31.30
34815;DHT22;21030;53.912;15.214;2022-11-11T04:58:29;29.00;30.90
34815;DHT22;21030;53.912;15.214;2022-11-11T05:00:56;29.50;31.00
34815;DHT22;21030;53.912;15.214;2022-11-11T05:03:23;30.00;30.80
34815;DHT22;21030;53.912;15.214;2022-11-11T05:05:55;30.10;30.10
34815;DHT22;21030;53.912;15.214;2022-11-11T05:08:47;29.90;30.60
34815;DHT22;21030;53.912;15.214;2022-11-11T05:11:29;29.90;30.40
34815;DHT22;21030;53.912;15.214;2022-11-11T05:14:01;29.90;30.00
34815;DHT22;21030;53.912;15.214;2022-11-11T05:16:55;29.80;30.30
34815;DHT22;21030;53.912;15.214;2022-11-11T05:19:42;30.00;30.00
34815;DHT22;21030;53.912;15.214;2022-11-11T05:22:49;30.30;29.90
34815;DHT22;21030;53.912;15.214;2022-11-11T05:25:14;30.10;30.10
34815;DHT22;21030;53.912;15.214;2022-11-11T05:27:56;30.00;29.90
34815;DHT22;21030;53.912;15.214;2022-11-11T05:30:24;29.50;30.70
34815;DHT22;21030;53.912;15.214;2022-11-11T05:32:54;29.00;31.10
34815;DHT22;21030;53.912;15.214;2022-11-11T05:35:22;29.20;31.20
34815;DHT22;21030;53.912;15.214;2022-11-11T05:37:49;29.60;30.90
34815;DHT22;21030;53.912;15.214;2022-11-11T05:40:35;29.90;30.50
34815;DHT22;21030;53.912;15.214;2022-11-11T05:43:02;29.60;30.20
34815;DHT22;21030;53.912;15.214;2022-11-11T05:45:29;29.20;30.80
34815;DHT22;21030;53.912;15.214;2022-11-11T05:48:00;28.60;32.00
34815;DHT22;21030;53.912;15.214;2022-11-11T05:50:28;28.70;32.30
34815;DHT22;21030;53.912;15.214;2022-11-11T05:52:55;28.70;31.90
34815;DHT22;21030;53.912;15.214;2022-11-11T05:55:22;28.90;31.60
34815;DHT22;21030;53.912;15.214;2022-11-11T05:57:49;29.20;31.50
34815;DHT22;21030;53.912;15.214;2022-11-11T06:00:17;29.30;31.10
34815;DHT22;21030;53.912;15.214;2022-11-11T06:02:44;29.50;30.90
34815;DHT22;21030;53.912;15.214;2022-11-11T06:05:11;29.30;31.00
34815;DHT22;21030;53.912;15.214;2022-11-11T06:07:38;29.00;31.60
34815;DHT22;21030;53.912;15.214;2022-11-11T06:10:09;28.70;31.60
34815;DHT22;21030;53.912;15.214;2022-11-11T06:12:57;28.30;32.70
34815;DHT22;21030;53.912;15.214;2022-11-11T06:15:37;28.40;32.60
34815;DHT22;21030;53.912;15.214;2022-11-11T06:18:05;28.40;32.50
34815;DHT22;21030;53.912;15.214;2022-11-11T06:20:32;28.20;32.40
34815;DHT22;21030;53.912;15.214;2022-11-11T06:23:03;28.40;32.70
34815;DHT22;21030;53.912;15.214;2022-11-11T06:25:32;28.50;32.30
34815;DHT22;21030;53.912;15.214;2022-11-11T06:28:18;28.00;32.70
34815;DHT22;21030;53.912;15.214;2022-11-11T06:30:45;27.90;33.40
34815;DHT22;21030;53.912;15.214;2022-11-11T06:33:17;27.70;33.70
34815;DHT22;21030;53.912;15.214;2022-11-11T06:35:45;27.90;33.30
34815;DHT22;21030;53.912;15.214;2022-11-11T06:38:12;28.40;32.90
34815;DHT22;21030;53.912;15.214;2022-11-11T06:40:41;28.40;32.90
34815;DHT22;21030;53.912;15.214;2022-11-11T06:43:09;28.40;32.60
34815;DHT22;21030;53.912;15.214;2022-11-11T06:45:37;28.10;33.30
34815;DHT22;21030;53.912;15.214;2022-11-11T06:48:05;28.50;32.90
34815;DHT22;21030;53.912;15.214;2022-11-11T06:50:32;28.80;32.30
34815;DHT22;21030;53.912;15.214;2022-11-11T06:53:07;29.40;31.70
34815;DHT22;21030;53.912;15.214;2022-11-11T06:55:34;29.40;31.50
34815;DHT22;21030;53.912;15.214;2022-11-11T06:58:15;29.50;31.10
34815;DHT22;21030;53.912;15.214;2022-11-11T07:00:43;29.90;30.70
34815;DHT22;21030;53.912;15.214;2022-11-11T07:03:13;29.50;30.90
34815;DHT22;21030;53.912;15.214;2022-11-11T07:05:42;29.20;31.40
34815;DHT22;21030;53.912;15.214;2022-11-11T07:08:14;29.60;31.20
34815;DHT22;21030;53.912;15.214;2022-11-11T07:10:47;29.30;31.40
34815;DHT22;21030;53.912;15.214;2022-11-11T07:13:15;29.50;31.60
34815;DHT22;21030;53.912;15.214;2022-11-11T07:15:43;29.60;30.90
34815;DHT22;21030;53.912;15.214;2022-11-11T07:18:10;29.50;31.30
34815;DHT22;21030;53.912;15.214;2022-11-11T07:20:38;29.70;32.00
34815;DHT22;21030;53.912;15.214;2022-11-11T07:23:05;29.10;31.40
34815;DHT22;21030;53.912;15.214;2022-11-11T07:25:32;29.50;31.40
34815;DHT22;21030;53.912;15.214;2022-11-11T07:28:00;29.80;31.20
34815;DHT22;21030;53.912;15.214;2022-11-11T07:30:27;30.50;30.60
34815;DHT22;21030;53.912;15.214;2022-11-11T07:32:54;31.50;29.60
34815;DHT22;21030;53.912;15.214;2022-11-11T07:35:22;31.80;28.80
34815;DHT22;21030;53.912;15.214;2022-11-11T07:37:49;31.30;29.20
34815;DHT22;21030;53.912;15.214;2022-11-11T07:40:18;30.90;29.80
34815;DHT22;21030;53.912;15.214;2022-11-11T07:42:46;31.20;29.70
34815;DHT22;21030;53.912;15.214;2022-11-11T07:45:13;31.00;29.30
34815;DHT22;21030;53.912;15.214;2022-11-11T07:47:42;31.90;29.10
34815;DHT22;21030;53.912;15.214;2022-11-11T07:50:10;31.50;28.80
34815;DHT22;21030;53.912;15.214;2022-11-11T07:52:38;32.00;28.80
34815;DHT22;21030;53.912;15.214;2022-11-11T07:55:06;32.30;28.50
34815;DHT22;21030;53.912;15.214;2022-11-11T07:57:35;32.40;28.20
34815;DHT22;21030;53.912;15.214;2022-11-11T08:00:04;32.10;28.40
34815;DHT22;21030;53.912;15.214;2022-11-11T08:02:31;32.60;28.20
34815;DHT22;21030;53.912;15.214;2022-11-11T08:04:59;32.80;27.80
34815;DHT22;21030;53.912;15.214;2022-11-11T08:07:26;32.00;28.00
34815;DHT22;21030;53.912;15.214;2022-11-11T08:09:53;32.40;28.00
34815;DHT22;21030;53.912;15.214;2022-11-11T08:12:20;32.80;28.20
34815;DHT22;21030;53.912;15.214;2022-11-11T08:15:06;32.40;27.80
34815;DHT22;21030;53.912;15.214;2022-11-11T08:17:37;31.20;28.40
34815;DHT22;21030;53.912;15.214;2022-11-11T08:20:08;30.60;30.00
34815;DHT22;21030;53.912;15.214;2022-11-11T08:22:40;30.60;29.50
34815;DHT22;21030;53.912;15.214;2022-11-11T08:25:29;30.60;29.60
34815;DHT22;21030;53.912;15.214;2022-11-11T08:28:00;30.40;29.60
34815;DHT22;21030;53.912;15.214;2022-11-11T08:30:28;30.10;29.80
34815;DHT22;21030;53.912;15.214;2022-11-11T08:32:58;29.90;30.30
34815;DHT22;21030;53.912;15.214;2022-11-11T08:35:46;29.00;31.00
34815;DHT22;21030;53.912;15.214;2022-11-11T08:38:13;29.60;31.30
34815;DHT22;21030;53.912;15.214;2022-11-11T08:40:40;29.90;30.40
34815;DHT22;21030;53.912;15.214;2022-11-11T08:43:07;29.90;29.90
34815;DHT22;21030;53.912;15.214;2022-11-11T08:45:35;29.80;30.40
34815;DHT22;21030;53.912;15.214;2022-11-11T08:48:02;29.90;30.20
34815;DHT22;21030;53.912;15.214;2022-11-11T08:50:29;29.90;30.50
34815;DHT22;21030;53.912;15.214;2022-11-11T08:52:56;30.60;30.00
34815;DHT22;21030;53.912;15.214;2022-11-11T08:55:24;30.70;29.70
34815;DHT22;21030;53.912;15.214;2022-11-11T08:58:03;30.70;29.50
34815;DHT22;21030;53.912;15.214;2022-11-11T09:00:32;29.80;30.00
34815;DHT22;21030;53.912;15.214;2022-11-11T09:03:01;30.60;30.00
34815;DHT22;21030;53.912;15.214;2022-11-11T09:05:29;30.80;29.60
34815;DHT22;21030;53.912;15.214;2022-11-11T09:08:00;29.90;30.00
34815;DHT22;21030;53.912;15.214;2022-11-11T09:10:27;29.60;30.60
34815;DHT22;21030;53.912;15.214;2022-11-11T09:12:57;29.10;31.10
34815;DHT22;21030;53.912;15.214;2022-11-11T09:15:25;29.20;31.40
34815;DHT22;21030;53.912;15.214;2022-11-11T09:17:53;29.00;31.10
34815;DHT22;21030;53.912;15.214;2022-11-11T09:20:20;29.30;31.40
34815;DHT22;21030;53.912;15.214;2022-11-11T09:22:51;30.10;30.60
34815;DHT22;21030;53.912;15.214;2022-11-11T09:25:20;30.50;30.20
34815;DHT22;21030;53.912;15.214;2022-11-11T09:27:59;31.10;29.70
34815;DHT22;21030;53.912;15.214;2022-11-11T09:30:28;30.80;29.60
34815;DHT22;21030;53.912;15.214;2022-11-11T09:33:02;30.10;30.00
34815;DHT22;21030;53.912;15.214;2022-11-11T09:35:29;30.50;30.00
34815;DHT22;21030;53.912;15.214;2022-11-11T09:38:00;30.00;29.90
34815;DHT22;21030;53.912;15.214;2022-11-11T09:40:47;30.60;30.00
34815;DHT22;21030;53.912;15.214;2022-11-11T09:54:56;30.20;30.00
34815;DHT22;21030;53.912;15.214;2022-11-11T09:57:37;30.10;30.20
34815;DHT22;21030;53.912;15.214;2022-11-11T10:00:28;30.20;30.10
34815;DHT22;21030;53.912;15.214;2022-11-11T10:03:21;30.40;29.80
34815;DHT22;21030;53.912;15.214;2022-11-11T10:05:51;30.40;30.00
34815;DHT22;21030;53.912;15.214;2022-11-11T10:08:41;30.10;30.60
34815;DHT22;21030;53.912;15.214;2022-11-11T10:11:30;31.40;29.70
34815;DHT22;21030;53.912;15.214;2022-11-11T10:14:01;30.70;29.50
34815;DHT22;21030;53.912;15.214;2022-11-11T10:19:30;30.20;30.00
34815;DHT22;21030;53.912;15.214;2022-11-11T10:22:19;29.90;30.50
34815;DHT22;21030;53.912;15.214;2022-11-11T10:27:30;29.30;31.10
34815;DHT22;21030;53.912;15.214;2022-11-11T10:30:00;29.40;31.00
34815;DHT22;21030;53.912;15.214;2022-11-11T10:32:34;29.80;31.10
34815;DHT22;21030;53.912;15.214;2022-11-11T10:35:17;30.20;30.70
34815;DHT22;21030;53.912;15.214;2022-11-11T10:37:46;30.70;30.20
34815;DHT22;21030;53.912;15.214;2022-11-11T10:40:41;30.90;29.70
34815;DHT22;21030;53.912;15.214;2022-11-11T10:43:21;31.00;29.70
34815;DHT22;21030;53.912;15.214;2022-11-11T10:46:00;30.60;29.70
34815;DHT22;21030;53.912;15.214;2022-11-11T10:51:19;31.10;29.60
34815;DHT22;21030;53.912;15.214;2022-11-11T10:56:55;30.20;30.20
34815;DHT22;21030;53.912;15.214;2022-11-11T10:59:50;31.50;29.50
34815;DHT22;21030;53.912;15.214;2022-11-11T11:02:22;32.30;28.80
34815;DHT22;21030;53.912;15.214;2022-11-11T11:04:54;31.90;28.30
34815;DHT22;21030;53.912;15.214;2022-11-11T11:07:28;32.10;28.90
34815;DHT22;21030;53.912;15.214;2022-11-11T11:10:11;32.60;28.60
34815;DHT22;21030;53.912;15.214;2022-11-11T11:13:03;32.20;28.40
34815;DHT22;21030;53.912;15.214;2022-11-11T11:15:38;32.90;28.20
34815;DHT22;21030;53.912;15.214;2022-11-11T11:18:11;32.40;28.20
34815;DHT22;21030;53.912;15.214;2022-11-11T11:20:54;32.30;28.40
34815;DHT22;21030;53.912;15.214;2022-11-11T11:23:42;31.40;28.80
34815;DHT22;21030;53.912;15.214;2022-11-11T11:26:11;31.50;29.00
34815;DHT22;21030;53.912;15.214;2022-11-11T11:28:59;31.40;29.20
34815;DHT22;21030;53.912;15.214;2022-11-11T11:31:39;30.60;29.80
34815;DHT22;21030;53.912;15.214;2022-11-11T11:34:08;31.20;29.80
34815;DHT22;21030;53.912;15.214;2022-11-11T11:36:35;31.80;29.00
34815;DHT22;21030;53.912;15.214;2022-11-11T11:39:02;31.40;29.40
34815;DHT22;21030;53.912;15.214;2022-11-11T11:41:42;31.60;29.40
34815;DHT22;21030;53.912;15.214;2022-11-11T11:52:24;32.40;28.60
34815;DHT22;21030;53.912;15.214;2022-11-11T11:55:04;32.60;28.10
34815;DHT22;21030;53.912;15.214;2022-11-11T12:00:25;31.10;29.20
34815;DHT22;21030;53.912;15.214;2022-11-11T12:06:00;31.10;29.60
34815;DHT22;21030;53.912;15.214;2022-11-11T12:11:16;32.00;29.60
34815;DHT22;21030;53.912;15.214;2022-11-11T12:13:53;32.80;28.80
34815;DHT22;21030;53.912;15.214;2022-11-11T12:16:53;32.00;28.80
34815;DHT22;21030;53.912;15.214;2022-11-11T12:25:28;32.10;28.80
34815;DHT22;21030;53.912;15.214;2022-11-11T12:28:09;32.10;29.00
34815;DHT22;21030;53.912;15.214;2022-11-11T12:30:51;33.50;28.50
34815;DHT22;21030;53.912;15.214;2022-11-11T12:38:55;31.20;29.20
34815;DHT22;21030;53.912;15.214;2022-11-11T12:42:13;30.70;30.00
34815;DHT22;21030;53.912;15.214;2022-11-11T12:44:52;31.60;29.60
34815;DHT22;21030;53.912;15.214;2022-11-11T12:47:31;31.40;29.70
34815;DHT22;21030;53.912;15.214;2022-11-11T12:50:23;31.60;29.20
34815;DHT22;21030;53.912;15.214;2022-11-11T12:59:04;31.40;30.40
34815;DHT22;21030;53.912;15.214;2022-11-11T13:10:02;32.30;29.40
34815;DHT22;21030;53.912;15.214;2022-11-11T13:12:42;31.90;29.10
34815;DHT22;21030;53.912;15.214;2022-11-11T13:15:16;31.90;29.30
34815;DHT22;21030;53.912;15.214;2022-11-11T13:17:43;31.80;29.40
34815;DHT22;21030;53.912;15.214;2022-11-11T13:20:23;31.80;29.10
34815;DHT22;21030;53.912;15.214;2022-11-11T13:22:54;32.10;29.60
34815;DHT22;21030;53.912;15.214;2022-11-11T13:25:24;32.10;29.30
34815;DHT22;21030;53.912;15.214;2022-11-11T13:28:46;32.40;29.00
34815;DHT22;21030;53.912;15.214;2022-11-11T13:33:40;32.10;29.30
34815;DHT22;21030;53.912;15.214;2022-11-11T13:36:11;32.00;29.50
34815;DHT22;21030;53.912;15.214;2022-11-11T13:38:51;31.30;30.10
34815;DHT22;21030;53.912;15.214;2022-11-11T13:41:29;31.10;30.30
34815;DHT22;21030;53.912;15.214;2022-11-11T13:43:59;31.20;30.00
34815;DHT22;21030;53.912;15.214;2022-11-11T13:46:35;31.60;29.90
34815;DHT22;21030;53.912;15.214;2022-11-11T13:49:07;31.50;29.80
34815;DHT22;21030;53.912;15.214;2022-11-11T13:51:41;30.90;30.30
34815;DHT22;21030;53.912;15.214;2022-11-11T13:54:30;31.40;30.20
34815;DHT22;21030;53.912;15.214;2022-11-11T13:57:07;31.40;30.20
34815;DHT22;21030;53.912;15.214;2022-11-11T13:59:39;31.50;30.10
34815;DHT22;21030;53.912;15.214;2022-11-11T14:18:33;32.60;29.40
34815;DHT22;21030;53.912;15.214;2022-11-11T14:21:02;32.70;29.20
34815;DHT22;21030;53.912;15.214;2022-11-11T14:23:33;32.40;29.00
34815;DHT22;21030;53.912;15.214;2022-11-11T14:29:00;32.40;29.30
34815;DHT22;21030;53.912;15.214;2022-11-11T14:31:35;33.00;28.90
34815;DHT22;21030;53.912;15.214;2022-11-11T14:34:19;33.50;28.40
34815;DHT22;21030;53.912;15.214;2022-11-11T14:37:00;33.40;28.30
34815;DHT22;21030;53.912;15.214;2022-11-11T14:39:46;32.90;29.00
34815;DHT22;21030;53.912;15.214;2022-11-11T14:42:41;33.00;28.30
34815;DHT22;21030;53.912;15.214;2022-11-11T14:51:44;33.00;28.50
34815;DHT22;21030;53.912;15.214;2022-11-11T14:54:32;33.30;28.50
34815;DHT22;21030;53.912;15.214;2022-11-11T14:57:05;33.20;28.10
34815;DHT22;21030;53.912;15.214;2022-11-11T14:59:37;33.00;28.20
34815;DHT22;21030;53.912;15.214;2022-11-11T15:02:17;33.30;28.50
34815;DHT22;21030;53.912;15.214;2022-11-11T15:04:47;32.50;28.60
34815;DHT22;21030;53.912;15.214;2022-11-11T15:13:03;32.50;28.90
34815;DHT22;21030;53.912;15.214;2022-11-11T15:21:36;34.20;28.40
34815;DHT22;21030;53.912;15.214;2022-11-11T15:27:19;33.90;27.70
34815;DHT22;21030;53.912;15.214;2022-11-11T15:32:37;34.20;27.60
34815;DHT22;21030;53.912;15.214;2022-11-11T15:37:59;32.50;28.40
34815;DHT22;21030;53.912;15.214;2022-11-11T15:40:42;32.60;29.00
34815;DHT22;21030;53.912;15.214;2022-11-11T15:43:25;33.50;28.50
34815;DHT22;21030;53.912;15.214;2022-11-11T15:45:57;32.80;28.20
34815;DHT22;21030;53.912;15.214;2022-11-11T15:48:29;33.50;28.30
34815;DHT22;21030;53.912;15.214;2022-11-11T15:51:34;33.20;27.90
34815;DHT22;21030;53.912;15.214;2022-11-11T15:54:19;32.60;28.90
34815;DHT22;21030;53.912;15.214;2022-11-11T15:56:50;32.50;28.90
34815;DHT22;21030;53.912;15.214;2022-11-11T15:59:23;32.70;28.70
34815;DHT22;21030;53.912;15.214;2022-11-11T16:01:51;32.20;29.10
34815;DHT22;21030;53.912;15.214;2022-11-11T16:04:21;32.50;29.10
34815;DHT22;21030;53.912;15.214;2022-11-11T16:07:24;33.00;28.70
34815;DHT22;21030;53.912;15.214;2022-11-11T16:09:52;33.20;28.60
34815;DHT22;21030;53.912;15.214;2022-11-11T16:12:27;33.30;28.10
34815;DHT22;21030;53.912;15.214;2022-11-11T16:14:59;33.30;27.80
34815;DHT22;21030;53.912;15.214;2022-11-11T16:17:39;33.10;28.40
34815;DHT22;21030;53.912;15.214;2022-11-11T16:20:14;33.50;28.10
34815;DHT22;21030;53.912;15.214;2022-11-11T16:22:44;33.80;28.10
34815;DHT22;21030;53.912;15.214;2022-11-11T16:25:18;33.30;27.90
34815;DHT22;21030;53.912;15.214;2022-11-11T16:27:46;33.10;28.00
34815;DHT22;21030;53.912;15.214;2022-11-11T16:30:32;33.30;28.70
34815;DHT22;21030;53.912;15.214;2022-11-11T16:33:00;32.70;28.20
34815;DHT22;21030;53.912;15.214;2022-11-11T16:35:37;32.20;28.80
34815;DHT22;21030;53.912;15.214;2022-11-11T16:38:05;31.80;29.20
34815;DHT22;21030;53.912;15.214;2022-11-11T16:43:32;33.40;28.30
34815;DHT22;21030;53.912;15.214;2022-11-11T16:46:14;32.50;28.40
34815;DHT22;21030;53.912;15.214;2022-11-11T16:48:44;32.50;28.60
34815;DHT22;21030;53.912;15.214;2022-11-11T16:51:19;31.90;28.90
34815;DHT22;21030;53.912;15.214;2022-11-11T16:53:54;30.90;29.70
34815;DHT22;21030;53.912;15.214;2022-11-11T16:56:28;30.40;30.20
34815;DHT22;21030;53.912;15.214;2022-11-11T16:59:04;30.50;30.40
34815;DHT22;21030;53.912;15.214;2022-11-11T17:01:44;30.80;30.30
34815;DHT22;21030;53.912;15.214;2022-11-11T17:04:12;30.90;30.00
34815;DHT22;21030;53.912;15.214;2022-11-11T17:06:55;30.70;30.00
34815;DHT22;21030;53.912;15.214;2022-11-11T17:09:41;31.40;29.90
34815;DHT22;21030;53.912;15.214;2022-11-11T17:12:08;31.60;29.50
34815;DHT22;21030;53.912;15.214;2022-11-11T17:14:37;31.40;29.50
34815;DHT22;21030;53.912;15.214;2022-11-11T17:17:08;31.40;29.60
34815;DHT22;21030;53.912;15.214;2022-11-11T17:19:36;31.90;29.40
34815;DHT22;21030;53.912;15.214;2022-11-11T17:22:05;31.20;29.40
34815;DHT22;21030;53.912;15.214;2022-11-11T17:24:33;31.50;29.40
34815;DHT22;21030;53.912;15.214;2022-11-11T17:27:00;31.10;29.80
34815;DHT22;21030;53.912;15.214;2022-11-11T17:29:27;31.20;29.50
34815;DHT22;21030;53.912;15.214;2022-11-11T17:31:55;31.20;30.10
34815;DHT22;21030;53.912;15.214;2022-11-11T17:34:22;31.20;29.60
34815;DHT22;21030;53.912;15.214;2022-11-11T17:36:49;30.80;30.60
34815;DHT22;21030;53.912;15.214;2022-11-11T17:39:16;31.50;29.50
34815;DHT22;21030;53.912;15.214;2022-11-11T17:41:43;32.00;29.30
34815;DHT22;21030;53.912;15.214;2022-11-11T17:44:11;32.30;28.80
34815;DHT22;21030;53.912;15.214;2022-11-11T17:46:38;32.70;28.50
34815;DHT22;21030;53.912;15.214;2022-11-11T17:49:05;32.20;28.40
34815;DHT22;21030;53.912;15.214;2022-11-11T17:51:32;31.60;28.80
34815;DHT22;21030;53.912;15.214;2022-11-11T17:54:00;32.10;28.80
34815;DHT22;21030;53.912;15.214;2022-11-11T17:56:27;32.40;29.10
34815;DHT22;21030;53.912;15.214;2022-11-11T17:58:55;32.30;28.60
34815;DHT22;21030;53.912;15.214;2022-11-11T18:01:23;32.50;28.20
34815;DHT22;21030;53.912;15.214;2022-11-11T18:03:54;32.30;28.10
34815;DHT22;21030;53.912;15.214;2022-11-11T18:06:22;31.90;28.60
34815;DHT22;21030;53.912;15.214;2022-11-11T18:08:49;32.10;28.40
34815;DHT22;21030;53.912;15.214;2022-11-11T18:11:16;31.90;28.40